createdAt,value
2018-11-07T00:01:37.808Z,68.21
2018-11-07T00:04:08.492Z,68.53
2018-11-07T00:06:39.130Z,68.36
2018-11-07T00:09:10.173Z,68.38
2018-11-07T00:11:40.776Z,68.23
2018-11-07T00:14:11.416Z,68.19
2018-11-07T00:16:42.096Z,67.97
2018-11-07T00:19:12.727Z,68.36
2018-11-07T00:21:43.432Z,68.40
2018-11-07T00:24:14.685Z,68.20
2018-11-07T00:26:45.436Z,68.16
2018-11-07T00:29:16.114Z,68.10
2018-11-07T00:31:46.731Z,67.71
2018-11-07T00:34:17.373Z,68.16
2018-11-07T00:36:48.007Z,67.69
2018-11-07T00:39:18.653Z,67.96
2018-11-07T00:41:49.290Z,67.88
2018-11-07T00:44:19.900Z,67.54
2018-11-07T00:46:50.630Z,66.99
2018-11-07T00:49:21.262Z,67.28
2018-11-07T00:51:51.972Z,67.32
2018-11-07T00:54:22.655Z,67.03
2018-11-07T00:56:53.324Z,66.27
2018-11-07T00:59:23.999Z,66.36
2018-11-07T01:01:54.673Z,66.15
2018-11-07T01:04:25.305Z,66.17
2018-11-07T01:06:56.289Z,66.04
2018-11-07T01:09:26.905Z,66.16
2018-11-07T01:11:57.543Z,66.33
2018-11-07T01:14:28.210Z,65.48
2018-11-07T01:16:58.878Z,65.46
2018-11-07T01:19:29.484Z,65.20
2018-11-07T01:22:00.175Z,65.38
2018-11-07T01:24:30.795Z,65.44
2018-11-07T01:27:01.481Z,65.12
2018-11-07T01:29:32.144Z,65.38
2018-11-07T01:32:02.850Z,65.25
2018-11-07T01:34:33.508Z,65.27
2018-11-07T01:37:04.244Z,64.97
2018-11-07T01:39:34.954Z,65.08
2018-11-07T01:42:05.985Z,64.84
2018-11-07T01:44:36.632Z,65.18
2018-11-07T01:47:07.317Z,65.37
2018-11-07T01:49:38.012Z,65.29
2018-11-07T01:52:08.762Z,65.62
2018-11-07T01:54:39.375Z,65.54
2018-11-07T01:57:10.063Z,65.53
2018-11-07T01:59:40.701Z,65.21
2018-11-07T02:02:11.415Z,65.56
2018-11-07T02:04:42.041Z,65.02
2018-11-07T02:07:12.733Z,65.16
2018-11-07T02:09:43.435Z,65.06
2018-11-07T02:12:14.095Z,65.33
2018-11-07T02:14:44.720Z,65.90
2018-11-07T02:17:15.380Z,65.66
2018-11-07T02:19:46.110Z,65.85
2018-11-07T02:22:16.755Z,66.17
2018-11-07T02:24:47.419Z,66.37
2018-11-07T02:27:18.051Z,66.67
2018-11-07T02:29:48.701Z,66.34
2018-11-07T02:32:19.376Z,66.32
2018-11-07T02:34:50.063Z,66.25
2018-11-07T02:37:20.691Z,66.47
2018-11-07T02:39:51.355Z,67.00
2018-11-07T02:42:21.996Z,67.27
2018-11-07T02:44:52.611Z,67.63
2018-11-07T02:47:23.246Z,68.05
2018-11-07T02:49:53.961Z,67.96
2018-11-07T02:52:24.606Z,68.10
2018-11-07T02:54:55.284Z,68.14
2018-11-07T02:57:25.931Z,67.82
2018-11-07T02:59:56.605Z,68.23
2018-11-07T03:02:27.312Z,68.30
2018-11-07T03:04:58.040Z,68.41
2018-11-07T03:07:28.728Z,68.54
2018-11-07T03:09:59.363Z,68.25
2018-11-07T03:12:30.041Z,68.26
2018-11-07T03:15:00.723Z,68.10
2018-11-07T03:17:31.377Z,68.22
2018-11-07T03:20:02.052Z,68.00
2018-11-07T03:22:32.650Z,68.04
2018-11-07T03:25:03.335Z,67.55
2018-11-07T03:27:33.946Z,67.56
2018-11-07T03:30:05.404Z,68.00
2018-11-07T03:32:36.059Z,67.23
2018-11-07T03:35:11.560Z,67.67
2018-11-07T03:37:42.257Z,67.19
2018-11-07T03:40:12.991Z,67.74
2018-11-07T03:42:43.731Z,67.52
2018-11-07T03:45:14.404Z,67.51
2018-11-07T03:47:45.008Z,67.19
2018-11-07T03:50:15.632Z,67.65
2018-11-07T03:52:46.311Z,67.09
2018-11-07T03:55:16.937Z,66.86
2018-11-07T03:57:47.540Z,67.62
2018-11-07T04:00:18.201Z,67.60
2018-11-07T04:02:48.809Z,67.82
2018-11-07T04:05:19.551Z,67.82
2018-11-07T04:07:50.158Z,68.04
2018-11-07T04:10:20.796Z,68.23
2018-11-07T04:12:51.535Z,68.38
2018-11-07T04:15:22.218Z,68.44
2018-11-07T04:17:52.871Z,68.80
2018-11-07T04:20:23.460Z,68.96
2018-11-07T04:22:54.101Z,68.87
2018-11-07T04:25:24.769Z,69.37
2018-11-07T04:27:55.434Z,69.31
2018-11-07T04:30:26.114Z,69.43
2018-11-07T04:32:56.720Z,69.53
2018-11-07T04:35:27.371Z,69.32
2018-11-07T04:37:58.037Z,69.50
2018-11-07T04:40:28.620Z,69.25
2018-11-07T04:42:59.271Z,69.15
2018-11-07T04:45:29.909Z,69.39
2018-11-07T04:48:00.549Z,69.42
2018-11-07T04:50:31.163Z,69.49
2018-11-07T04:53:01.784Z,69.25
2018-11-07T04:55:32.448Z,69.34
2018-11-07T04:58:03.124Z,69.23
2018-11-07T05:00:33.770Z,69.42
2018-11-07T05:03:04.455Z,69.34
2018-11-07T05:05:35.088Z,69.46
2018-11-07T05:08:05.787Z,69.65
2018-11-07T05:10:36.443Z,69.83
2018-11-07T05:13:07.116Z,69.61
2018-11-07T05:15:37.794Z,69.92
2018-11-07T05:18:08.468Z,70.11
2018-11-07T05:20:39.064Z,70.35
2018-11-07T05:23:09.724Z,70.29
2018-11-07T05:25:40.376Z,70.23
2018-11-07T05:28:11.120Z,70.11
2018-11-07T05:30:41.738Z,70.35
2018-11-07T05:33:12.388Z,70.41
2018-11-07T05:35:43.028Z,70.51
2018-11-07T05:38:13.696Z,70.46
2018-11-07T05:40:44.302Z,70.10
2018-11-07T05:43:14.970Z,70.62
2018-11-07T05:45:45.655Z,70.65
2018-11-07T05:48:16.287Z,70.66
2018-11-07T05:50:46.945Z,70.74
2018-11-07T05:53:17.642Z,70.55
2018-11-07T05:55:48.380Z,70.44
2018-11-07T05:58:19.015Z,70.18
2018-11-07T06:00:49.696Z,70.12
2018-11-07T06:03:20.413Z,69.92
2018-11-07T06:05:51.073Z,69.65
2018-11-07T06:08:21.735Z,69.37
2018-11-07T06:10:52.388Z,69.51
2018-11-07T06:13:23.017Z,69.44
2018-11-07T06:15:53.673Z,69.28
2018-11-07T06:18:24.359Z,69.49
2018-11-07T06:20:55.000Z,69.19
2018-11-07T06:23:25.627Z,69.44
2018-11-07T06:25:56.571Z,69.08
2018-11-07T06:28:27.209Z,69.09
2018-11-07T06:30:58.113Z,69.08
2018-11-07T06:33:28.767Z,69.10
2018-11-07T06:35:59.430Z,68.93
2018-11-07T06:38:30.067Z,69.13
2018-11-07T06:41:00.703Z,69.14
2018-11-07T06:43:31.348Z,69.08
2018-11-07T06:46:02.116Z,69.24
2018-11-07T06:48:32.830Z,69.40
2018-11-07T06:51:03.538Z,68.72
2018-11-07T06:53:34.195Z,68.10
2018-11-07T06:56:04.826Z,67.39
2018-11-07T06:58:35.460Z,66.66
2018-11-07T07:01:06.178Z,66.16
2018-11-07T07:03:36.782Z,65.39
2018-11-07T07:06:07.628Z,64.60
2018-11-07T07:08:38.430Z,63.47
2018-11-07T07:11:09.227Z,62.97
2018-11-07T07:13:40.012Z,61.72
2018-11-07T07:16:10.667Z,60.10
2018-11-07T07:18:41.328Z,57.96
2018-11-07T07:21:11.959Z,55.29
2018-11-07T07:23:42.692Z,52.35
2018-11-07T07:26:13.387Z,49.44
2018-11-07T07:28:44.076Z,48.40
2018-11-07T07:31:14.763Z,44.95
2018-11-07T07:33:45.524Z,43.02
2018-11-07T07:36:16.129Z,41.95
2018-11-07T07:38:46.824Z,40.97
2018-11-07T07:41:17.553Z,38.20
2018-11-07T07:43:48.205Z,37.00
2018-11-07T07:46:18.941Z,37.58
2018-11-07T07:48:49.622Z,39.29
2018-11-07T07:51:20.323Z,37.84
2018-11-07T07:53:51.067Z,37.39
2018-11-07T07:56:21.768Z,36.28
2018-11-07T07:58:52.424Z,37.31
2018-11-07T08:01:23.108Z,35.90
2018-11-07T08:03:53.788Z,36.80
2018-11-07T08:06:24.421Z,35.48
2018-11-07T08:08:55.085Z,34.87
2018-11-07T08:11:25.726Z,34.48
2018-11-07T08:13:56.457Z,35.19
2018-11-07T08:16:27.102Z,36.81
2018-11-07T08:18:57.733Z,36.28
2018-11-07T08:21:28.357Z,35.75
2018-11-07T08:23:59.020Z,35.67
2018-11-07T08:26:29.769Z,34.83
2018-11-07T08:29:00.716Z,36.24
2018-11-07T08:31:31.660Z,38.02
2018-11-07T08:34:02.324Z,36.86
2018-11-07T08:36:33.003Z,36.93
2018-11-07T08:39:04.358Z,37.08
2018-11-07T08:41:34.979Z,37.00
2018-11-07T08:44:05.908Z,38.33
2018-11-07T08:46:36.608Z,39.36
2018-11-07T08:49:08.122Z,39.27
2018-11-07T08:51:38.782Z,40.00
2018-11-07T08:54:09.481Z,37.73
2018-11-07T08:56:40.245Z,39.63
2018-11-07T08:59:10.912Z,38.62
2018-11-07T09:01:41.562Z,39.27
2018-11-07T09:04:12.392Z,39.09
2018-11-07T09:06:43.076Z,38.63
2018-11-07T09:09:13.738Z,37.93
2018-11-07T09:11:44.423Z,36.26
2018-11-07T09:14:15.052Z,33.70
2018-11-07T09:16:45.727Z,35.36
2018-11-07T09:19:16.355Z,37.56
2018-11-07T09:21:47.020Z,37.61
2018-11-07T09:24:17.792Z,37.97
2018-11-07T09:26:48.526Z,39.07
2018-11-07T09:29:19.231Z,37.02
2018-11-07T09:31:49.844Z,36.95
2018-11-07T09:34:20.558Z,36.88
2018-11-07T09:36:51.221Z,37.37
2018-11-07T09:39:21.974Z,37.13
2018-11-07T09:41:52.694Z,38.87
2018-11-07T09:44:23.469Z,37.96
2018-11-07T09:46:54.124Z,38.47
2018-11-07T09:49:24.818Z,38.00
2018-11-07T09:51:55.535Z,39.50
2018-11-07T09:54:26.252Z,39.91
2018-11-07T09:56:56.914Z,40.74
2018-11-07T09:59:27.586Z,40.65
2018-11-07T10:01:58.288Z,38.90
2018-11-07T10:04:28.935Z,38.27
2018-11-07T10:06:59.688Z,39.44
2018-11-07T10:09:30.431Z,39.88
2018-11-07T10:12:01.109Z,40.62
2018-11-07T10:14:31.861Z,40.43
2018-11-07T10:17:02.571Z,39.57
2018-11-07T10:20:36.405Z,39.87
2018-11-07T10:23:07.149Z,38.58
2018-11-07T10:25:37.870Z,37.96
2018-11-07T10:28:09.021Z,37.93
2018-11-07T10:30:39.339Z,38.11
2018-11-07T10:33:10.008Z,37.51
2018-11-07T10:35:40.649Z,37.88
2018-11-07T10:38:11.425Z,38.32
2018-11-07T10:40:42.149Z,37.72
2018-11-07T10:43:12.847Z,37.39
2018-11-07T10:45:43.496Z,36.63
2018-11-07T10:48:14.218Z,37.46
2018-11-07T10:50:44.913Z,37.93
2018-11-07T10:53:15.582Z,38.27
2018-11-07T10:55:46.261Z,39.21
2018-11-07T10:58:17.050Z,40.11
2018-11-07T11:00:52.978Z,40.82
2018-11-07T11:03:28.932Z,41.40
2018-11-07T11:05:59.846Z,41.50
2018-11-07T11:08:30.509Z,40.51
2018-11-07T11:11:01.351Z,40.09
2018-11-07T11:13:32.015Z,39.57
2018-11-07T11:16:02.680Z,39.03
2018-11-07T11:18:33.338Z,38.35
2018-11-07T11:21:04.038Z,38.50
2018-11-07T11:23:34.743Z,37.32
2018-11-07T11:26:05.550Z,37.16
2018-11-07T11:28:36.304Z,38.47
2018-11-07T11:31:07.038Z,38.29
2018-11-07T11:33:37.756Z,39.14
2018-11-07T11:36:14.427Z,39.35
2018-11-07T11:38:45.077Z,40.29
2018-11-07T11:41:15.902Z,40.86
2018-11-07T11:43:46.532Z,41.17
2018-11-07T11:46:17.211Z,41.42
2018-11-07T11:48:47.914Z,41.65
2018-11-07T11:51:18.554Z,42.40
2018-11-07T11:53:49.253Z,42.64
2018-11-07T11:56:19.917Z,42.99
2018-11-07T11:58:50.651Z,42.66
2018-11-07T12:01:21.264Z,42.99
2018-11-07T12:03:51.935Z,42.54
2018-11-07T12:06:22.665Z,41.90
2018-11-07T12:08:53.368Z,40.48
2018-11-07T12:11:24.149Z,39.44
2018-11-07T12:13:54.788Z,39.45
2018-11-07T12:16:25.465Z,39.22
2018-11-07T12:18:56.077Z,38.72
2018-11-07T12:21:26.815Z,39.15
2018-11-07T12:23:57.404Z,39.34
2018-11-07T12:26:28.083Z,39.87
2018-11-07T12:28:58.864Z,39.15
2018-11-07T12:31:29.520Z,38.95
2018-11-07T12:34:00.141Z,39.99
2018-11-07T12:36:31.004Z,39.98
2018-11-07T12:39:01.723Z,40.97
2018-11-07T12:41:32.517Z,40.87
2018-11-07T12:44:03.328Z,41.45
2018-11-07T12:46:34.084Z,41.15
2018-11-07T12:49:04.882Z,40.47
2018-11-07T12:51:35.656Z,39.64
2018-11-07T12:54:06.501Z,39.04
2018-11-07T12:56:37.258Z,39.69
2018-11-07T12:59:08.161Z,39.66
2018-11-07T13:01:38.848Z,39.42
2018-11-07T13:04:09.568Z,40.20
2018-11-07T13:06:40.252Z,40.43
2018-11-07T13:09:12.432Z,40.39
2018-11-07T13:11:43.310Z,40.68
2018-11-07T13:14:14.039Z,39.38
2018-11-07T13:16:44.783Z,39.22
2018-11-07T13:19:15.390Z,39.04
2018-11-07T13:21:46.103Z,38.99
2018-11-07T13:24:16.752Z,39.51
2018-11-07T13:26:47.460Z,39.49
2018-11-07T13:29:18.174Z,39.15
2018-11-07T13:31:48.967Z,39.82
2018-11-07T13:34:19.751Z,39.69
2018-11-07T13:36:50.589Z,39.76
2018-11-07T13:39:21.529Z,39.95
2018-11-07T13:41:51.877Z,39.81
2018-11-07T13:44:22.597Z,39.24
2018-11-07T13:46:53.231Z,40.09
2018-11-07T13:49:23.904Z,39.23
2018-11-07T13:51:54.629Z,39.00
2018-11-07T13:54:25.357Z,39.56
2018-11-07T13:56:56.154Z,39.12
2018-11-07T13:59:26.910Z,39.29
2018-11-07T14:01:57.654Z,39.50
2018-11-07T14:04:28.429Z,39.85
2018-11-07T14:06:59.475Z,40.74
2018-11-07T14:09:30.122Z,40.81
2018-11-07T14:12:00.844Z,41.11
2018-11-07T14:14:31.513Z,42.11
2018-11-07T14:17:02.340Z,41.70
2018-11-07T14:19:33.654Z,42.06
2018-11-07T14:22:04.372Z,42.50
2018-11-07T14:24:35.171Z,42.48
2018-11-07T14:27:05.983Z,43.05
2018-11-07T14:29:36.871Z,43.50
2018-11-07T14:32:07.728Z,43.78
2018-11-07T14:34:38.910Z,44.08
2018-11-07T14:37:09.543Z,44.44
2018-11-07T14:39:40.286Z,44.46
2018-11-07T14:42:11.100Z,44.63
2018-11-07T14:44:41.819Z,44.51
2018-11-07T14:47:12.578Z,44.76
2018-11-07T14:49:43.178Z,45.18
2018-11-07T14:52:13.958Z,45.18
2018-11-07T14:54:44.644Z,44.86
2018-11-07T14:57:15.351Z,44.87
2018-11-07T14:59:46.052Z,45.37
2018-11-07T15:02:16.788Z,45.09
2018-11-07T15:04:47.542Z,45.66
2018-11-07T15:07:18.251Z,45.60
2018-11-07T15:09:48.911Z,45.57
2018-11-07T15:12:19.573Z,46.03
2018-11-07T15:14:50.212Z,45.89
2018-11-07T15:17:20.874Z,46.08
2018-11-07T15:19:51.563Z,46.10
2018-11-07T15:22:22.526Z,46.20
2018-11-07T15:24:53.213Z,47.02
2018-11-07T15:27:23.852Z,46.82
2018-11-07T15:29:54.470Z,46.64
2018-11-07T15:32:25.152Z,46.48
2018-11-07T15:34:55.793Z,46.57
2018-11-07T15:37:26.540Z,47.25
2018-11-07T15:39:57.232Z,47.29
2018-11-07T15:42:28.474Z,47.40
2018-11-07T15:44:59.202Z,47.34
2018-11-07T15:47:29.919Z,47.35
2018-11-07T15:51:07.316Z,47.52
2018-11-07T15:53:38.127Z,48.03
2018-11-07T15:56:09.174Z,48.50
2018-11-07T15:58:39.849Z,48.02
2018-11-07T16:01:10.544Z,48.32
2018-11-07T16:03:46.419Z,48.27
2018-11-07T16:06:18.503Z,48.53
2018-11-07T16:08:49.086Z,48.38
2018-11-07T16:11:19.696Z,48.84
2018-11-07T16:13:50.475Z,49.01
2018-11-07T16:16:21.065Z,48.94
2018-11-07T16:18:51.819Z,49.43
2018-11-07T16:21:22.560Z,49.87
2018-11-07T16:23:53.500Z,50.79
2018-11-07T16:26:24.257Z,51.89
2018-11-07T16:28:54.998Z,52.46
2018-11-07T16:31:25.601Z,52.75
2018-11-07T16:33:56.277Z,53.63
2018-11-07T16:36:26.875Z,55.76
2018-11-07T16:38:57.479Z,56.30
2018-11-07T16:41:28.319Z,58.15
2018-11-07T16:43:58.784Z,57.00
2018-11-07T16:46:29.450Z,58.30
2018-11-07T16:49:00.138Z,58.09
2018-11-07T16:51:30.771Z,59.20
2018-11-07T16:54:01.492Z,59.72
2018-11-07T16:56:32.154Z,60.04
2018-11-07T16:59:02.957Z,60.51
2018-11-07T17:01:33.539Z,61.26
2018-11-07T17:04:04.223Z,61.80
2018-11-07T17:06:34.876Z,62.01
2018-11-07T17:09:07.643Z,62.50
2018-11-07T17:11:38.730Z,62.14
2018-11-07T17:14:10.257Z,63.13
2018-11-07T17:16:40.852Z,62.13
2018-11-07T17:19:11.537Z,62.99
2018-11-07T17:21:42.151Z,62.85
2018-11-07T17:24:13.003Z,63.08
2018-11-07T17:26:43.648Z,63.20
2018-11-07T17:29:14.252Z,63.30
2018-11-07T17:31:44.967Z,63.22
2018-11-07T17:34:15.706Z,63.47
2018-11-07T17:36:46.393Z,64.09
2018-11-07T17:39:17.028Z,63.61
2018-11-07T17:41:47.804Z,63.84
2018-11-07T17:44:18.541Z,64.14
2018-11-07T17:46:49.172Z,64.02
2018-11-07T17:49:19.847Z,64.24
2018-11-07T17:51:50.826Z,64.14
2018-11-07T17:54:21.465Z,63.76
2018-11-07T17:56:52.142Z,64.21
2018-11-07T17:59:22.866Z,64.72
2018-11-07T18:01:53.546Z,63.64
2018-11-07T18:04:24.179Z,64.18
2018-11-07T18:06:54.846Z,64.52
2018-11-07T18:09:25.469Z,64.04
2018-11-07T18:11:57.801Z,63.54
2018-11-07T18:14:28.500Z,64.30
2018-11-07T18:16:59.134Z,64.10
2018-11-07T18:19:29.841Z,64.55
2018-11-07T18:22:00.501Z,64.35
2018-11-07T18:24:31.147Z,64.14
2018-11-07T18:27:01.950Z,64.34
2018-11-07T18:29:32.681Z,64.32
2018-11-07T18:32:03.427Z,64.51
2018-11-07T18:34:36.236Z,63.95
2018-11-07T18:37:07.835Z,64.19
2018-11-07T18:39:38.953Z,64.71
2018-11-07T18:42:09.708Z,64.10
2018-11-07T18:44:40.380Z,64.49
2018-11-07T18:47:11.169Z,64.43
2018-11-07T18:49:42.075Z,64.72
2018-11-07T18:52:12.725Z,64.92
2018-11-07T18:54:43.376Z,64.95
2018-11-07T18:57:14.040Z,65.07
2018-11-07T18:59:44.664Z,64.92
2018-11-07T19:02:15.322Z,64.95
2018-11-07T19:04:45.984Z,65.10
2018-11-07T19:07:16.625Z,64.93
2018-11-07T19:09:48.277Z,65.43
2018-11-07T19:12:18.965Z,64.95
2018-11-07T19:14:49.626Z,65.27
2018-11-07T19:17:20.375Z,64.85
2018-11-07T19:19:51.141Z,64.78
2018-11-07T19:22:21.755Z,65.17
2018-11-07T19:24:52.524Z,64.81
2018-11-07T19:27:23.303Z,64.86
2018-11-07T19:29:53.846Z,64.87
2018-11-07T19:32:24.504Z,64.46
2018-11-07T19:34:55.172Z,64.67
2018-11-07T19:37:25.787Z,64.91
2018-11-07T19:39:56.486Z,65.10
2018-11-07T19:42:27.301Z,65.12
2018-11-07T19:44:57.930Z,65.06
2018-11-07T19:47:28.643Z,64.89
2018-11-07T19:49:59.294Z,65.68
2018-11-07T19:52:30.039Z,65.32
2018-11-07T19:55:00.741Z,65.29
2018-11-07T19:57:31.399Z,65.22
2018-11-07T20:00:02.148Z,65.43
2018-11-07T20:02:33.607Z,66.77
2018-11-07T20:05:04.416Z,64.33
2018-11-07T20:07:35.313Z,64.74
2018-11-07T20:10:08.492Z,64.80
2018-11-07T20:12:39.332Z,64.79
2018-11-07T20:15:11.915Z,64.58
2018-11-07T20:17:42.639Z,65.09
2018-11-07T20:20:13.699Z,65.22
2018-11-07T20:22:44.471Z,64.83
2018-11-07T20:25:15.707Z,65.05
2018-11-07T20:27:46.466Z,65.29
2018-11-07T20:30:18.748Z,64.77
2018-11-07T20:32:49.447Z,65.03
2018-11-07T20:35:21.078Z,65.18
2018-11-07T20:37:51.743Z,65.36
2018-11-07T20:40:23.100Z,65.35
2018-11-07T20:42:53.845Z,65.55
2018-11-07T20:45:24.551Z,65.45
2018-11-07T20:47:55.277Z,66.03
2018-11-07T20:50:25.923Z,66.17
2018-11-07T20:52:56.572Z,66.33
2018-11-07T20:55:27.255Z,65.71
2018-11-07T20:57:58.012Z,65.77
2018-11-07T21:00:28.725Z,66.29
2018-11-07T21:02:59.390Z,66.30
2018-11-07T21:05:30.126Z,66.23
2018-11-07T21:08:00.766Z,66.08
2018-11-07T21:10:31.429Z,66.27
2018-11-07T21:13:02.050Z,66.25
2018-11-07T21:15:32.777Z,65.74
2018-11-07T21:18:03.418Z,66.24
2018-11-07T21:20:34.125Z,65.88
2018-11-07T21:23:04.897Z,66.15
2018-11-07T21:25:35.570Z,66.11
2018-11-07T21:28:06.208Z,66.21
2018-11-07T21:30:36.943Z,66.19
2018-11-07T21:33:07.603Z,66.17
2018-11-07T21:35:38.366Z,66.41
2018-11-07T21:38:09.047Z,66.52
2018-11-07T21:40:39.701Z,66.74
2018-11-07T21:43:10.329Z,66.61
2018-11-07T21:45:40.997Z,66.41
2018-11-07T21:48:11.699Z,67.08
2018-11-07T21:50:42.319Z,67.03
2018-11-07T21:53:12.957Z,66.84
2018-11-07T21:55:43.608Z,67.10
2018-11-07T21:58:14.341Z,67.05
2018-11-07T22:00:44.944Z,67.15
2018-11-07T22:03:15.643Z,67.38
2018-11-07T22:05:46.364Z,67.25
2018-11-07T22:08:16.999Z,67.45
2018-11-07T22:10:47.682Z,67.55
2018-11-07T22:13:18.466Z,67.34
2018-11-07T22:15:49.035Z,67.20
2018-11-07T22:18:19.766Z,67.50
2018-11-07T22:20:50.408Z,67.23
2018-11-07T22:23:21.087Z,67.17
2018-11-07T22:25:51.740Z,66.88
2018-11-07T22:28:22.488Z,67.15
2018-11-07T22:30:53.130Z,67.27
2018-11-07T22:33:23.767Z,67.27
2018-11-07T22:35:54.424Z,67.11
2018-11-07T22:38:25.031Z,67.23
2018-11-07T22:40:55.669Z,67.19
2018-11-07T22:43:26.322Z,67.19
2018-11-07T22:45:57.023Z,67.15
2018-11-07T22:48:27.644Z,67.01
2018-11-07T22:50:58.313Z,67.02
2018-11-07T22:53:29.026Z,67.37
2018-11-07T22:55:59.907Z,67.71
2018-11-07T22:58:30.613Z,67.89
2018-11-07T23:01:06.536Z,67.50
2018-11-07T23:03:37.295Z,67.84
2018-11-07T23:06:07.989Z,67.72
2018-11-07T23:08:38.674Z,67.85
2018-11-07T23:11:09.433Z,67.73
2018-11-07T23:13:40.058Z,68.09
2018-11-07T23:16:10.703Z,67.90
2018-11-07T23:18:41.535Z,68.37
2018-11-07T23:21:12.309Z,68.29
2018-11-07T23:23:42.904Z,68.17
2018-11-07T23:26:13.558Z,68.35
2018-11-07T23:28:44.172Z,68.26
2018-11-07T23:31:14.839Z,68.47
2018-11-07T23:33:45.485Z,68.53
2018-11-07T23:36:16.130Z,68.84
2018-11-07T23:38:46.850Z,68.81
2018-11-07T23:41:17.505Z,68.48
2018-11-07T23:43:48.376Z,68.65
2018-11-07T23:46:19.168Z,68.47
2018-11-07T23:48:49.826Z,68.28
2018-11-07T23:51:20.455Z,68.29
2018-11-07T23:53:51.112Z,68.92
2018-11-07T23:56:21.802Z,68.73
2018-11-07T23:58:52.511Z,68.58
